sensor_id;sensor_type;location;lat;lon;timestamp;pressure;altitude;pressure_sealevel;temperature;humidity
54918;BME280;40818;50.562;7.454;2023-04-08T00:03:16;98153.88;;;5.89;100.00
54918;BME280;40818;50.562;7.454;2023-04-08T00:13:22;98161.84;;;5.82;100.00
54918;BME280;40818;50.562;7.454;2023-04-08T00:23:26;98164.59;;;5.78;100.00
54918;BME280;40818;50.562;7.454;2023-04-08T00:33:32;98160.22;;;5.80;100.00
54918;BME280;40818;50.562;7.454;2023-04-08T00:43:36;98166.09;;;5.84;100.00
54918;BME280;40818;50.562;7.454;2023-04-08T00:53:42;98163.53;;;5.84;100.00
54918;BME280;40818;50.562;7.454;2023-04-08T01:03:51;98159.88;;;5.89;100.00
54918;BME280;40818;50.562;7.454;2023-04-08T01:14:02;98170.19;;;5.89;100.00
54918;BME280;40818;50.562;7.454;2023-04-08T01:24:15;98171.47;;;5.77;100.00
54918;BME280;40818;50.562;7.454;2023-04-08T01:34:24;98179.41;;;5.73;100.00
54918;BME280;40818;50.562;7.454;2023-04-08T01:44:30;98176.88;;;5.71;100.00
54918;BME280;40818;50.562;7.454;2023-04-08T01:54:37;98174.31;;;5.71;100.00
54918;BME280;40818;50.562;7.454;2023-04-08T02:04:41;98177.91;;;5.67;100.00
54918;BME280;40818;50.562;7.454;2023-04-08T02:14:47;98175.25;;;5.69;100.00
54918;BME280;40818;50.562;7.454;2023-04-08T02:24:51;98181.38;;;5.66;100.00
54918;BME280;40818;50.562;7.454;2023-04-08T02:34:58;98184.72;;;5.68;100.00
54918;BME280;40818;50.562;7.454;2023-04-08T02:45:04;98180.47;;;5.67;100.00
54918;BME280;40818;50.562;7.454;2023-04-08T02:55:10;98181.44;;;5.64;100.00
54918;BME280;40818;50.562;7.454;2023-04-08T03:05:14;98187.38;;;5.67;100.00
54918;BME280;40818;50.562;7.454;2023-04-08T03:15:20;98194.97;;;5.70;100.00
54918;BME280;40818;50.562;7.454;2023-04-08T03:25:23;98194.38;;;5.63;100.00
54918;BME280;40818;50.562;7.454;2023-04-08T03:35:31;98197.81;;;5.62;100.00
54918;BME280;40818;50.562;7.454;2023-04-08T03:45:34;98212.53;;;5.60;100.00
54918;BME280;40818;50.562;7.454;2023-04-08T03:55:40;98199.63;;;5.60;100.00
54918;BME280;40818;50.562;7.454;2023-04-08T04:05:44;98196.22;;;5.59;100.00
54918;BME280;40818;50.562;7.454;2023-04-08T04:15:50;98204.78;;;5.60;100.00
54918;BME280;40818;50.562;7.454;2023-04-08T04:25:53;98210.84;;;5.59;100.00
54918;BME280;40818;50.562;7.454;2023-04-08T04:36:00;98214.28;;;5.58;100.00
54918;BME280;40818;50.562;7.454;2023-04-08T04:46:03;98205.81;;;5.56;100.00
54918;BME280;40818;50.562;7.454;2023-04-08T04:56:10;98220.97;;;5.40;100.00
54918;BME280;40818;50.562;7.454;2023-04-08T05:06:14;98225.97;;;5.44;100.00
54918;BME280;40818;50.562;7.454;2023-04-08T05:16:20;98233.13;;;5.36;100.00
54918;BME280;40818;50.562;7.454;2023-04-08T05:26:23;98238.03;;;5.42;100.00
54918;BME280;40818;50.562;7.454;2023-04-08T05:36:29;98240.63;;;5.42;100.00
54918;BME280;40818;50.562;7.454;2023-04-08T05:46:33;98244.00;;;5.44;100.00
54918;BME280;40818;50.562;7.454;2023-04-08T05:56:39;98260.78;;;5.55;100.00
54918;BME280;40818;50.562;7.454;2023-04-08T06:06:45;98276.91;;;5.60;100.00
54918;BME280;40818;50.562;7.454;2023-04-08T06:16:51;98268.22;;;5.86;100.00
54918;BME280;40818;50.562;7.454;2023-04-08T06:26:56;98284.69;;;5.82;100.00
54918;BME280;40818;50.562;7.454;2023-04-08T06:37:02;98288.22;;;5.79;100.00
54918;BME280;40818;50.562;7.454;2023-04-08T06:47:06;98293.03;;;5.89;100.00
54918;BME280;40818;50.562;7.454;2023-04-08T06:57:12;98293.75;;;6.16;100.00
54918;BME280;40818;50.562;7.454;2023-04-08T07:07:16;98301.72;;;6.54;100.00
54918;BME280;40818;50.562;7.454;2023-04-08T07:17:22;98311.13;;;6.55;100.00
54918;BME280;40818;50.562;7.454;2023-04-08T07:27:25;98319.88;;;6.73;100.00
54918;BME280;40818;50.562;7.454;2023-04-08T07:37:32;98330.19;;;6.73;100.00
54918;BME280;40818;50.562;7.454;2023-04-08T07:47:35;98341.97;;;7.01;100.00
54918;BME280;40818;50.562;7.454;2023-04-08T07:57:41;98346.84;;;7.29;100.00
54918;BME280;40818;50.562;7.454;2023-04-08T08:07:45;98354.00;;;7.23;100.00
54918;BME280;40818;50.562;7.454;2023-04-08T08:17:52;98354.59;;;7.09;100.00
54918;BME280;40818;50.562;7.454;2023-04-08T08:27:58;98368.34;;;7.30;100.00
54918;BME280;40818;50.562;7.454;2023-04-08T08:38:04;98373.63;;;7.27;100.00
54918;BME280;40818;50.562;7.454;2023-04-08T08:48:08;98378.28;;;7.39;100.00
54918;BME280;40818;50.562;7.454;2023-04-08T08:58:14;98390.81;;;7.48;100.00
54918;BME280;40818;50.562;7.454;2023-04-08T09:08:25;98399.88;;;7.59;100.00
54918;BME280;40818;50.562;7.454;2023-04-08T09:18:32;98407.25;;;7.87;100.00
54918;BME280;40818;50.562;7.454;2023-04-08T09:28:36;98413.50;;;8.02;100.00
54918;BME280;40818;50.562;7.454;2023-04-08T09:38:43;98412.25;;;8.11;100.00
54918;BME280;40818;50.562;7.454;2023-04-08T09:48:55;98428.16;;;8.01;100.00
54918;BME280;40818;50.562;7.454;2023-04-08T09:59:08;98421.56;;;8.34;100.00
54918;BME280;40818;50.562;7.454;2023-04-08T10:09:14;98421.88;;;8.07;100.00
54918;BME280;40818;50.562;7.454;2023-04-08T10:19:38;98418.75;;;8.19;100.00
54918;BME280;40818;50.562;7.454;2023-04-08T10:29:42;98433.66;;;8.33;100.00
54918;BME280;40818;50.562;7.454;2023-04-08T10:39:53;98434.16;;;7.83;100.00
54918;BME280;40818;50.562;7.454;2023-04-08T10:49:56;98425.78;;;7.97;100.00
54918;BME280;40818;50.562;7.454;2023-04-08T11:00:05;98430.81;;;8.00;100.00
54918;BME280;40818;50.562;7.454;2023-04-08T11:10:09;98426.19;;;8.27;100.00
54918;BME280;40818;50.562;7.454;2023-04-08T11:20:16;98421.66;;;8.32;100.00
54918;BME280;40818;50.562;7.454;2023-04-08T11:30:20;98428.47;;;8.33;100.00
54918;BME280;40818;50.562;7.454;2023-04-08T11:40:27;98421.09;;;8.26;100.00
54918;BME280;40818;50.562;7.454;2023-04-08T11:50:31;98417.72;;;8.24;100.00
54918;BME280;40818;50.562;7.454;2023-04-08T12:00:37;98431.19;;;8.11;100.00
54918;BME280;40818;50.562;7.454;2023-04-08T12:10:40;98425.69;;;8.38;100.00
54918;BME280;40818;50.562;7.454;2023-04-08T12:20:46;98428.91;;;8.43;100.00
54918;BME280;40818;50.562;7.454;2023-04-08T12:30:50;98415.41;;;8.94;100.00
54918;BME280;40818;50.562;7.454;2023-04-08T12:40:56;98408.50;;;9.47;100.00
54918;BME280;40818;50.562;7.454;2023-04-08T12:50:59;98407.47;;;9.67;94.95
54918;BME280;40818;50.562;7.454;2023-04-08T13:01:06;98406.50;;;9.69;97.13
54918;BME280;40818;50.562;7.454;2023-04-08T13:11:09;98400.31;;;9.72;96.26
54918;BME280;40818;50.562;7.454;2023-04-08T13:21:15;98404.38;;;9.94;97.97
54918;BME280;40818;50.562;7.454;2023-04-08T13:31:19;98407.97;;;9.57;98.31
54918;BME280;40818;50.562;7.454;2023-04-08T13:41:25;98401.66;;;9.79;100.00
54918;BME280;40818;50.562;7.454;2023-04-08T13:51:28;98417.09;;;9.65;98.78
54918;BME280;40818;50.562;7.454;2023-04-08T14:01:34;98412.09;;;9.62;100.00
54918;BME280;40818;50.562;7.454;2023-04-08T14:11:39;98408.03;;;9.56;100.00
54918;BME280;40818;50.562;7.454;2023-04-08T14:21:45;98411.44;;;9.74;100.00
54918;BME280;40818;50.562;7.454;2023-04-08T14:31:49;98403.47;;;9.95;100.00
54918;BME280;40818;50.562;7.454;2023-04-08T14:41:55;98396.91;;;10.05;100.00
54918;BME280;40818;50.562;7.454;2023-04-08T14:51:59;98397.25;;;10.31;100.00
54918;BME280;40818;50.562;7.454;2023-04-08T15:02:05;98397.81;;;10.04;100.00
54918;BME280;40818;50.562;7.454;2023-04-08T15:12:08;98408.84;;;9.74;100.00
54918;BME280;40818;50.562;7.454;2023-04-08T15:22:14;98398.06;;;9.48;100.00
54918;BME280;40818;50.562;7.454;2023-04-08T15:32:18;98395.13;;;9.54;100.00
54918;BME280;40818;50.562;7.454;2023-04-08T15:42:24;98403.97;;;9.68;100.00
54918;BME280;40818;50.562;7.454;2023-04-08T15:52:27;98399.34;;;9.90;100.00
54918;BME280;40818;50.562;7.454;2023-04-08T16:02:33;98406.50;;;10.03;100.00
54918;BME280;40818;50.562;7.454;2023-04-08T16:12:37;98409.06;;;10.20;97.66
54918;BME280;40818;50.562;7.454;2023-04-08T16:22:43;98406.94;;;10.11;100.00
54918;BME280;40818;50.562;7.454;2023-04-08T16:32:47;98420.28;;;9.87;98.90
54918;BME280;40818;50.562;7.454;2023-04-08T16:42:53;98415.72;;;9.75;100.00
54918;BME280;40818;50.562;7.454;2023-04-08T16:52:57;98422.50;;;9.60;100.00
54918;BME280;40818;50.562;7.454;2023-04-08T17:03:03;98429.81;;;9.52;100.00
54918;BME280;40818;50.562;7.454;2023-04-08T17:13:06;98432.34;;;9.36;100.00
54918;BME280;40818;50.562;7.454;2023-04-08T17:23:13;98426.00;;;9.24;100.00
54918;BME280;40818;50.562;7.454;2023-04-08T17:33:16;98430.34;;;9.06;100.00
54918;BME280;40818;50.562;7.454;2023-04-08T17:43:22;98434.03;;;9.00;100.00
54918;BME280;40818;50.562;7.454;2023-04-08T17:53:26;98434.59;;;8.90;100.00
54918;BME280;40818;50.562;7.454;2023-04-08T18:03:33;98443.75;;;8.78;100.00
54918;BME280;40818;50.562;7.454;2023-04-08T18:13:37;98440.75;;;8.68;100.00
54918;BME280;40818;50.562;7.454;2023-04-08T18:23:45;98457.63;;;8.58;100.00
54918;BME280;40818;50.562;7.454;2023-04-08T18:33:49;98466.69;;;8.47;100.00
54918;BME280;40818;50.562;7.454;2023-04-08T18:43:55;98477.03;;;8.28;100.00
54918;BME280;40818;50.562;7.454;2023-04-08T18:54:02;98481.75;;;8.18;100.00
54918;BME280;40818;50.562;7.454;2023-04-08T19:04:08;98490.94;;;8.05;100.00
54918;BME280;40818;50.562;7.454;2023-04-08T19:14:12;98496.50;;;7.96;100.00
54918;BME280;40818;50.562;7.454;2023-04-08T19:24:19;98495.09;;;7.89;100.00
54918;BME280;40818;50.562;7.454;2023-04-08T19:34:23;98502.19;;;7.83;100.00
54918;BME280;40818;50.562;7.454;2023-04-08T19:44:29;98506.72;;;7.78;100.00
54918;BME280;40818;50.562;7.454;2023-04-08T19:54:32;98500.91;;;7.73;100.00
54918;BME280;40818;50.562;7.454;2023-04-08T20:04:39;98508.13;;;7.65;100.00
54918;BME280;40818;50.562;7.454;2023-04-08T20:14:42;98526.38;;;7.17;100.00
54918;BME280;40818;50.562;7.454;2023-04-08T20:24:49;98519.41;;;7.20;100.00
54918;BME280;40818;50.562;7.454;2023-04-08T20:34:53;98532.91;;;7.26;100.00
54918;BME280;40818;50.562;7.454;2023-04-08T20:44:59;98527.03;;;7.23;100.00
54918;BME280;40818;50.562;7.454;2023-04-08T20:55:03;98532.41;;;7.16;100.00
54918;BME280;40818;50.562;7.454;2023-04-08T21:05:10;98519.50;;;6.94;100.00
54918;BME280;40818;50.562;7.454;2023-04-08T21:15:13;98522.06;;;6.72;100.00
54918;BME280;40818;50.562;7.454;2023-04-08T21:25:19;98524.97;;;6.39;100.00
54918;BME280;40818;50.562;7.454;2023-04-08T21:35:23;98523.38;;;5.58;100.00
54918;BME280;40818;50.562;7.454;2023-04-08T21:45:29;98530.28;;;5.30;100.00
54918;BME280;40818;50.562;7.454;2023-04-08T21:55:32;98533.13;;;5.21;100.00
54918;BME280;40818;50.562;7.454;2023-04-08T22:05:38;98532.34;;;5.18;100.00
54918;BME280;40818;50.562;7.454;2023-04-08T22:15:42;98532.56;;;5.11;100.00
54918;BME280;40818;50.562;7.454;2023-04-08T22:25:50;98546.59;;;5.01;100.00
54918;BME280;40818;50.562;7.454;2023-04-08T22:35:55;98541.81;;;4.89;100.00
54918;BME280;40818;50.562;7.454;2023-04-08T22:46:01;98540.88;;;4.91;100.00
54918;BME280;40818;50.562;7.454;2023-04-08T22:56:05;98531.84;;;5.06;100.00
54918;BME280;40818;50.562;7.454;2023-04-08T23:06:11;98524.13;;;5.06;100.00
54918;BME280;40818;50.562;7.454;2023-04-08T23:16:14;98517.25;;;5.07;100.00
54918;BME280;40818;50.562;7.454;2023-04-08T23:26:20;98518.94;;;5.08;100.00
54918;BME280;40818;50.562;7.454;2023-04-08T23:36:24;98514.91;;;4.99;100.00
54918;BME280;40818;50.562;7.454;2023-04-08T23:46:30;98529.63;;;4.95;100.00
54918;BME280;40818;50.562;7.454;2023-04-08T23:56:34;98526.09;;;4.98;100.00
